createdAt,value
2023-03-04T00:01:37.441Z,2.70
2023-03-04T00:04:04.765Z,2.72
2023-03-04T00:06:32.018Z,2.80
2023-03-04T00:08:59.269Z,2.70
2023-03-04T00:11:26.621Z,2.63
2023-03-04T00:13:53.831Z,2.28
2023-03-04T00:16:21.024Z,2.47
2023-03-04T00:18:48.188Z,2.55
2023-03-04T00:21:15.549Z,2.97
2023-03-04T00:23:43.914Z,3.15
2023-03-04T00:26:11.094Z,2.72
2023-03-04T00:28:39.404Z,3.00
2023-03-04T00:31:10.011Z,2.47
2023-03-04T00:33:37.231Z,2.40
2023-03-04T00:36:05.101Z,2.60
2023-03-04T00:38:32.252Z,2.78
2023-03-04T00:40:59.400Z,2.60
2023-03-04T00:43:26.485Z,2.85
2023-03-04T00:45:53.685Z,2.90
2023-03-04T00:48:20.736Z,2.72
2023-03-04T00:50:49.123Z,2.72
2023-03-04T00:53:16.227Z,3.08
2023-03-04T00:55:43.656Z,3.08
2023-03-04T00:58:10.853Z,3.10
2023-03-04T01:00:37.941Z,3.13
2023-03-04T01:03:05.121Z,3.08
2023-03-04T01:05:34.402Z,2.95
2023-03-04T01:10:28.969Z,2.90
2023-03-04T01:12:56.203Z,3.20
2023-03-04T01:15:23.690Z,3.80
2023-03-04T01:17:50.894Z,3.40
2023-03-04T01:22:35.641Z,3.47
2023-03-04T01:25:03.386Z,3.35
2023-03-04T01:27:30.546Z,3.50
2023-03-04T01:29:57.776Z,3.45
2023-03-04T01:32:24.959Z,3.35
2023-03-04T01:38:12.907Z,3.05
2023-03-04T01:40:40.256Z,3.55
2023-03-04T01:43:11.442Z,3.17
2023-03-04T01:45:40.261Z,2.60
2023-03-04T01:48:11.349Z,3.10
2023-03-04T01:50:38.483Z,3.30
2023-03-04T01:53:06.403Z,3.70
2023-03-04T01:55:33.579Z,3.40
2023-03-04T02:00:59.979Z,3.72
2023-03-04T02:03:28.015Z,3.83
2023-03-04T02:05:56.514Z,3.10
2023-03-04T02:08:25.112Z,3.60
2023-03-04T02:10:52.983Z,3.45
2023-03-04T02:13:20.153Z,3.00
2023-03-04T02:15:48.699Z,3.78
2023-03-04T02:18:19.013Z,3.75
2023-03-04T02:21:13.842Z,2.92
2023-03-04T02:23:52.560Z,3.05
2023-03-04T02:26:25.430Z,3.30
2023-03-04T02:28:54.973Z,3.20
2023-03-04T02:31:30.249Z,2.95
2023-03-04T02:34:03.348Z,3.03
2023-03-04T02:36:32.021Z,2.80
2023-03-04T02:39:10.898Z,2.88
2023-03-04T02:41:38.594Z,3.13
2023-03-04T02:44:26.371Z,3.20
2023-03-04T02:46:53.901Z,2.92
2023-03-04T02:49:22.256Z,2.90
2023-03-04T02:52:06.406Z,3.13
2023-03-04T02:54:34.161Z,2.80
2023-03-04T02:57:04.303Z,2.55
2023-03-04T02:59:31.682Z,2.58
2023-03-04T03:01:58.880Z,2.72
2023-03-04T03:07:51.039Z,2.72
2023-03-04T03:10:18.222Z,2.75
2023-03-04T03:12:45.485Z,2.95
2023-03-04T03:15:12.743Z,2.30
2023-03-04T03:17:40.160Z,2.20
2023-03-04T03:20:10.082Z,2.75
2023-03-04T03:22:37.234Z,2.45
2023-03-04T03:25:05.161Z,2.40
2023-03-04T03:27:32.521Z,2.72
2023-03-04T03:29:59.716Z,2.70
2023-03-04T03:32:26.954Z,2.30
2023-03-04T03:34:54.069Z,2.30
2023-03-04T03:37:21.228Z,3.33
2023-03-04T03:39:48.348Z,2.55
2023-03-04T03:42:15.458Z,1.95
2023-03-04T03:44:42.670Z,2.45
2023-03-04T03:47:09.772Z,2.53
2023-03-04T03:49:36.830Z,1.75
2023-03-04T03:52:03.993Z,2.97
2023-03-04T03:54:31.038Z,2.50
2023-03-04T03:56:58.177Z,2.08
2023-03-04T03:59:25.407Z,2.80
2023-03-04T04:01:52.608Z,1.92
2023-03-04T04:04:19.763Z,2.08
2023-03-04T04:06:46.963Z,2.92
2023-03-04T04:09:14.107Z,2.20
2023-03-04T04:11:41.228Z,2.22
2023-03-04T04:14:11.871Z,2.72
2023-03-04T04:16:39.092Z,2.53
2023-03-04T04:19:06.706Z,2.20
2023-03-04T04:21:34.131Z,2.03
2023-03-04T04:24:01.233Z,2.72
2023-03-04T04:26:28.265Z,2.40
2023-03-04T04:28:55.719Z,2.13
2023-03-04T04:31:22.808Z,2.03
2023-03-04T04:33:49.914Z,1.77
2023-03-04T04:36:17.155Z,1.88
2023-03-04T04:38:45.352Z,2.17
2023-03-04T04:41:35.394Z,2.10
2023-03-04T04:44:02.560Z,1.83
2023-03-04T04:46:30.231Z,2.40
2023-03-04T04:48:57.665Z,2.05
2023-03-04T04:51:24.739Z,2.33
2023-03-04T04:53:51.900Z,2.40
2023-03-04T04:56:21.277Z,2.42
2023-03-04T05:01:16.556Z,2.10
2023-03-04T05:03:43.994Z,2.03
2023-03-04T05:06:14.548Z,2.08
2023-03-04T05:08:41.735Z,2.30
2023-03-04T05:11:09.517Z,2.30
2023-03-04T05:13:36.635Z,2.10
2023-03-04T05:16:03.973Z,2.00
2023-03-04T05:18:31.223Z,2.20
2023-03-04T05:21:01.062Z,2.40
2023-03-04T05:23:34.119Z,2.60
2023-03-04T05:26:05.726Z,2.25
2023-03-04T05:28:33.366Z,2.60
2023-03-04T05:31:01.072Z,2.33
2023-03-04T05:33:28.528Z,2.17
2023-03-04T05:35:56.446Z,2.35
2023-03-04T05:38:23.939Z,3.10
2023-03-04T05:40:58.251Z,2.30
2023-03-04T05:43:26.550Z,2.40
2023-03-04T05:45:54.087Z,2.38
2023-03-04T05:48:21.654Z,2.20
2023-03-04T05:50:54.127Z,2.20
2023-03-04T05:53:21.275Z,2.03
2023-03-04T05:55:48.952Z,2.38
2023-03-04T05:58:17.081Z,3.25
2023-03-04T06:00:44.700Z,2.92
2023-03-04T06:03:20.288Z,3.58
2023-03-04T06:05:47.616Z,2.85
2023-03-04T06:08:15.335Z,2.45
2023-03-04T06:10:42.892Z,2.55
2023-03-04T06:13:10.748Z,1.92
2023-03-04T06:15:39.616Z,2.20
2023-03-04T06:18:09.687Z,2.30
2023-03-04T06:20:37.177Z,2.25
2023-03-04T06:23:05.335Z,3.70
2023-03-04T06:25:32.701Z,2.30
2023-03-04T06:27:59.687Z,2.38
2023-03-04T06:30:26.780Z,2.50
2023-03-04T06:32:53.852Z,2.10
2023-03-04T06:35:21.080Z,2.75
2023-03-04T06:37:48.344Z,2.47
2023-03-04T06:40:15.336Z,3.03
2023-03-04T06:42:43.692Z,3.55
2023-03-04T06:45:11.754Z,2.30
2023-03-04T06:47:38.939Z,2.58
2023-03-04T06:50:06.348Z,2.42
2023-03-04T06:52:33.492Z,2.17
2023-03-04T06:55:00.513Z,2.40
2023-03-04T06:57:27.454Z,2.70
2023-03-04T06:59:54.449Z,2.50
2023-03-04T07:02:21.697Z,2.75
2023-03-04T07:04:48.791Z,2.17
2023-03-04T07:07:15.844Z,2.28
2023-03-04T07:09:42.907Z,2.20
2023-03-04T07:12:09.891Z,2.67
2023-03-04T07:14:36.880Z,3.78
2023-03-04T07:17:04.172Z,4.53
2023-03-04T07:19:31.204Z,2.70
2023-03-04T07:21:58.325Z,2.72
2023-03-04T07:24:25.388Z,3.00
2023-03-04T07:26:52.532Z,2.22
2023-03-04T07:29:19.471Z,2.50
2023-03-04T07:31:46.767Z,2.78
2023-03-04T07:34:14.369Z,3.38
2023-03-04T07:36:42.204Z,3.53
2023-03-04T07:41:36.162Z,6.13
2023-03-04T07:44:04.189Z,2.92
2023-03-04T07:52:15.036Z,3.25
2023-03-04T07:57:10.568Z,4.47
2023-03-04T07:59:37.692Z,4.50
2023-03-04T08:02:04.882Z,5.63
2023-03-04T08:06:45.458Z,5.35
2023-03-04T08:09:13.694Z,6.03
2023-03-04T08:11:41.594Z,5.35
2023-03-04T08:14:09.369Z,4.63
2023-03-04T08:16:36.398Z,3.40
2023-03-04T08:19:04.744Z,3.40
2023-03-04T08:21:32.227Z,3.67
2023-03-04T08:24:02.518Z,7.25
2023-03-04T08:28:45.905Z,5.57
2023-03-04T08:38:55.848Z,3.03
2023-03-04T08:41:23.112Z,2.80
2023-03-04T08:43:50.116Z,2.90
2023-03-04T08:46:17.220Z,3.28
2023-03-04T08:48:44.238Z,2.92
2023-03-04T08:53:27.680Z,2.03
2023-03-04T08:55:54.689Z,2.20
2023-03-04T08:58:21.847Z,2.38
2023-03-04T09:00:49.483Z,2.10
2023-03-04T09:03:19.866Z,2.75
2023-03-04T09:08:00.545Z,2.60
2023-03-04T09:10:27.746Z,2.40
2023-03-04T09:17:25.785Z,2.00
2023-03-04T09:19:52.733Z,1.92
2023-03-04T09:22:19.842Z,2.05
2023-03-04T09:24:46.877Z,2.13
2023-03-04T09:27:13.857Z,2.00
2023-03-04T09:29:41.246Z,2.13
2023-03-04T09:32:08.300Z,1.98
2023-03-04T09:34:35.380Z,2.58
2023-03-04T09:37:02.449Z,1.88
2023-03-04T09:39:29.480Z,1.98
2023-03-04T09:41:58.648Z,2.25
2023-03-04T09:44:37.837Z,2.15
2023-03-04T09:47:11.052Z,2.50
2023-03-04T09:49:41.475Z,2.10
2023-03-04T09:52:23.343Z,2.90
2023-03-04T09:55:04.940Z,2.53
2023-03-04T09:57:40.829Z,2.30
2023-03-04T10:00:14.172Z,2.47
2023-03-04T10:02:53.000Z,1.92
2023-03-04T10:05:22.152Z,2.00
2023-03-04T10:08:00.917Z,2.50
2023-03-04T10:10:37.362Z,2.00
2023-03-04T10:13:11.883Z,1.85
2023-03-04T10:15:47.144Z,1.70
2023-03-04T10:21:16.894Z,2.13
2023-03-04T10:23:43.940Z,2.22
2023-03-04T10:26:15.637Z,1.90
2023-03-04T10:28:43.126Z,2.00
2023-03-04T10:31:23.034Z,1.90
2023-03-04T10:33:50.136Z,2.00
2023-03-04T10:36:32.157Z,2.10
2023-03-04T10:39:17.919Z,1.92
2023-03-04T10:41:53.941Z,1.92
2023-03-04T10:44:21.088Z,1.80
2023-03-04T10:46:49.937Z,2.00
2023-03-04T10:49:19.396Z,1.70
2023-03-04T10:52:09.432Z,1.90
2023-03-04T10:54:42.824Z,2.35
2023-03-04T10:57:19.543Z,1.92
2023-03-04T10:59:50.928Z,1.95
2023-03-04T11:02:26.831Z,2.03
2023-03-04T11:05:04.734Z,1.73
2023-03-04T11:07:38.121Z,1.90
2023-03-04T11:10:18.341Z,2.08
2023-03-04T11:13:11.835Z,2.13
2023-03-04T11:16:01.783Z,1.88
2023-03-04T11:18:48.900Z,1.95
2023-03-04T11:21:19.654Z,2.00
2023-03-04T11:23:58.874Z,1.83
2023-03-04T11:26:38.498Z,1.73
2023-03-04T11:29:31.157Z,1.83
2023-03-04T11:32:16.032Z,2.10
2023-03-04T11:34:59.022Z,2.88
2023-03-04T11:37:35.667Z,2.03
2023-03-04T11:40:13.790Z,2.22
2023-03-04T11:43:13.399Z,1.73
2023-03-04T11:49:12.381Z,1.90
2023-03-04T11:51:42.703Z,1.83
2023-03-04T11:54:26.686Z,1.80
2023-03-04T11:57:00.665Z,2.10
2023-03-04T11:59:42.412Z,2.10
2023-03-04T12:02:22.666Z,2.13
2023-03-04T12:04:58.992Z,2.00
2023-03-04T12:07:51.281Z,2.38
2023-03-04T12:10:52.858Z,2.00
2023-03-04T12:13:46.532Z,2.20
2023-03-04T12:19:04.423Z,2.10
2023-03-04T12:22:02.948Z,1.85
2023-03-04T12:24:38.988Z,1.90
2023-03-04T12:27:20.976Z,2.15
2023-03-04T12:30:16.393Z,2.13
2023-03-04T12:32:55.729Z,2.28
2023-03-04T12:35:40.299Z,2.05
2023-03-04T12:38:42.079Z,2.20
2023-03-04T12:41:54.701Z,1.90
2023-03-04T12:44:23.346Z,2.03
2023-03-04T12:47:11.781Z,1.90
2023-03-04T12:49:50.189Z,1.90
2023-03-04T12:52:31.167Z,2.03
2023-03-04T12:55:02.405Z,2.13
2023-03-04T12:57:31.896Z,3.00
2023-03-04T13:00:22.742Z,2.65
2023-03-04T13:03:22.134Z,2.15
2023-03-04T13:06:08.750Z,1.70
2023-03-04T13:08:50.968Z,2.55
2023-03-04T13:11:27.120Z,2.05
2023-03-04T13:14:14.973Z,2.22
2023-03-04T13:16:46.024Z,2.20
2023-03-04T13:19:46.836Z,2.17
2023-03-04T13:22:35.409Z,2.10
2023-03-04T13:25:31.352Z,2.20
2023-03-04T13:28:10.430Z,2.42
2023-03-04T13:30:38.306Z,1.77
2023-03-04T13:33:08.381Z,2.20
2023-03-04T13:35:49.723Z,2.00
2023-03-04T13:41:09.273Z,2.10
2023-03-04T13:43:41.817Z,2.10
2023-03-04T13:46:21.014Z,2.10
2023-03-04T13:48:51.477Z,2.15
2023-03-04T13:51:43.098Z,2.08
2023-03-04T13:54:26.741Z,1.77
2023-03-04T13:57:18.693Z,2.95
2023-03-04T13:59:53.757Z,2.10
2023-03-04T14:02:26.249Z,2.30
2023-03-04T14:05:02.124Z,2.17
2023-03-04T14:07:31.897Z,2.28
2023-03-04T14:10:00.264Z,2.20
2023-03-04T14:12:30.439Z,2.83
2023-03-04T14:15:04.338Z,2.38
2023-03-04T14:17:39.323Z,2.00
2023-03-04T14:20:21.461Z,2.97
2023-03-04T14:22:48.440Z,2.10
2023-03-04T14:25:26.231Z,1.80
2023-03-04T14:28:17.962Z,1.77
2023-03-04T14:30:56.582Z,2.10
2023-03-04T14:33:26.447Z,2.15
2023-03-04T14:36:02.716Z,2.20
2023-03-04T14:38:38.566Z,2.03
2023-03-04T14:41:09.918Z,2.05
2023-03-04T14:43:51.114Z,2.30
2023-03-04T14:46:19.920Z,1.85
2023-03-04T14:48:52.451Z,2.13
2023-03-04T14:51:42.726Z,2.08
2023-03-04T14:54:41.094Z,2.40
2023-03-04T14:57:37.488Z,2.10
2023-03-04T15:00:22.682Z,2.00
2023-03-04T15:03:23.556Z,2.25
2023-03-04T15:05:52.805Z,2.10
2023-03-04T15:08:24.350Z,2.30
2023-03-04T15:10:57.372Z,2.10
2023-03-04T15:14:01.577Z,2.38
2023-03-04T15:16:50.086Z,2.22
2023-03-04T15:19:30.214Z,2.25
2023-03-04T15:22:07.119Z,2.40
2023-03-04T15:24:34.160Z,2.20
2023-03-04T15:27:04.088Z,2.50
2023-03-04T15:29:31.231Z,2.50
2023-03-04T15:31:58.238Z,2.08
2023-03-04T15:34:25.310Z,2.40
2023-03-04T15:36:53.118Z,2.03
2023-03-04T15:39:21.814Z,3.15
2023-03-04T15:41:50.884Z,2.22
2023-03-04T15:44:22.181Z,2.40
2023-03-04T15:46:49.212Z,2.03
2023-03-04T15:49:16.676Z,2.17
2023-03-04T15:51:46.701Z,2.45
2023-03-04T15:54:14.101Z,2.67
2023-03-04T15:56:45.934Z,2.63
2023-03-04T15:59:16.285Z,2.45
2023-03-04T16:01:47.037Z,2.15
2023-03-04T16:04:18.083Z,2.13
2023-03-04T16:06:46.918Z,2.47
2023-03-04T16:09:24.591Z,2.58
2023-03-04T16:12:04.307Z,2.33
2023-03-04T16:14:31.649Z,2.38
2023-03-04T16:16:58.883Z,2.58
2023-03-04T16:21:42.334Z,2.70
2023-03-04T16:24:18.009Z,2.67
2023-03-04T16:26:46.046Z,2.42
2023-03-04T16:29:14.422Z,2.20
2023-03-04T16:31:41.584Z,2.35
2023-03-04T16:34:08.707Z,2.28
2023-03-04T16:36:36.283Z,2.28
2023-03-04T16:41:22.914Z,8.35
2023-03-04T16:43:53.535Z,6.75
2023-03-04T16:46:21.890Z,4.25
2023-03-04T16:48:55.223Z,4.32
2023-03-04T16:51:25.610Z,3.30
2023-03-04T16:53:56.479Z,3.40
2023-03-04T16:58:40.526Z,4.32
2023-03-04T17:03:49.103Z,4.65
2023-03-04T17:06:16.616Z,4.18
2023-03-04T17:08:43.683Z,4.18
2023-03-04T17:11:18.508Z,4.22
2023-03-04T17:13:48.476Z,3.97
2023-03-04T17:19:02.314Z,4.15
2023-03-04T17:21:29.913Z,5.10
2023-03-04T17:24:00.168Z,3.72
2023-03-04T17:26:27.688Z,4.25
2023-03-04T17:32:10.270Z,5.15
2023-03-04T17:34:37.408Z,5.18
2023-03-04T17:39:22.918Z,7.15
2023-03-04T17:44:13.604Z,5.47
2023-03-04T17:51:50.277Z,6.90
2023-03-04T17:59:11.762Z,8.02
2023-03-04T18:01:40.037Z,6.32
2023-03-04T18:04:07.500Z,21.80
2023-03-04T18:11:47.808Z,12.18
2023-03-04T18:14:15.897Z,10.50
2023-03-04T18:16:46.937Z,15.15
2023-03-04T18:19:15.839Z,7.30
2023-03-04T18:21:45.107Z,8.60
2023-03-04T18:39:13.840Z,8.52
2023-03-04T18:46:48.267Z,5.80
2023-03-04T18:49:15.959Z,5.55
2023-03-04T18:51:43.108Z,4.45
2023-03-04T18:54:10.193Z,6.32
2023-03-04T18:59:33.612Z,5.38
2023-03-04T19:02:04.344Z,4.32
2023-03-04T19:04:34.565Z,4.50
2023-03-04T19:07:01.550Z,6.85
2023-03-04T19:09:28.608Z,6.70
2023-03-04T19:11:55.614Z,9.63
2023-03-04T19:14:22.640Z,9.43
2023-03-04T19:16:49.721Z,17.77
2023-03-04T19:19:16.777Z,16.15
2023-03-04T19:21:43.769Z,11.95
2023-03-04T19:24:10.815Z,6.35
2023-03-04T19:29:08.681Z,9.48
2023-03-04T19:31:41.058Z,9.02
2023-03-04T19:34:08.752Z,7.60
2023-03-04T19:36:35.982Z,10.30
2023-03-04T19:39:03.675Z,7.60
2023-03-04T19:41:30.766Z,6.85
2023-03-04T19:43:58.814Z,6.18
2023-03-04T19:46:27.157Z,9.63
2023-03-04T19:48:54.123Z,8.73
2023-03-04T19:51:23.638Z,9.10
2023-03-04T19:53:50.898Z,8.25
2023-03-04T19:56:18.601Z,8.48
2023-03-04T19:58:48.294Z,6.38
2023-03-04T20:04:13.128Z,4.10
2023-03-04T20:06:45.918Z,5.85
2023-03-04T20:12:01.937Z,5.03
2023-03-04T20:14:31.088Z,4.35
2023-03-04T20:17:04.612Z,5.13
2023-03-04T20:19:33.123Z,13.88
2023-03-04T20:22:05.652Z,28.17
2023-03-04T20:24:32.929Z,14.38
2023-03-04T20:27:02.905Z,18.90
2023-03-04T20:29:35.191Z,13.90
2023-03-04T20:32:04.324Z,8.63
2023-03-04T20:34:31.618Z,7.88
2023-03-04T20:37:02.082Z,7.18
2023-03-04T20:39:30.247Z,7.30
2023-03-04T20:41:58.678Z,6.00
2023-03-04T20:44:26.085Z,6.85
2023-03-04T20:46:53.423Z,7.18
2023-03-04T20:49:28.292Z,5.63
2023-03-04T20:51:59.603Z,5.38
2023-03-04T20:54:27.338Z,5.28
2023-03-04T20:56:54.524Z,5.75
2023-03-04T20:59:22.395Z,5.10
2023-03-04T21:01:54.131Z,5.07
2023-03-04T21:04:21.717Z,5.60
2023-03-04T21:06:55.000Z,4.80
2023-03-04T21:09:26.600Z,6.43
2023-03-04T21:14:29.985Z,6.68
2023-03-04T21:17:01.930Z,6.18
2023-03-04T21:19:36.537Z,6.40
2023-03-04T21:22:07.547Z,9.40
2023-03-04T21:24:36.388Z,9.95
2023-03-04T21:27:04.822Z,11.65
2023-03-04T21:29:32.171Z,11.20
2023-03-04T21:32:24.301Z,7.15
2023-03-04T21:34:54.931Z,6.80
2023-03-04T21:37:23.935Z,5.85
2023-03-04T21:39:51.585Z,7.10
2023-03-04T21:42:19.442Z,6.97
2023-03-04T21:44:51.420Z,5.55
2023-03-04T21:47:20.040Z,6.82
2023-03-04T21:49:50.542Z,5.68
2023-03-04T21:52:21.891Z,5.00
2023-03-04T21:54:49.894Z,5.40
2023-03-04T21:57:17.643Z,5.05
2023-03-04T21:59:45.059Z,5.32
2023-03-04T22:02:18.238Z,4.30
2023-03-04T22:04:47.082Z,5.68
2023-03-04T22:07:23.883Z,7.03
2023-03-04T22:09:54.281Z,5.78
2023-03-04T22:12:21.660Z,6.30
2023-03-04T22:14:48.948Z,6.53
2023-03-04T22:17:16.438Z,5.95
2023-03-04T22:19:43.885Z,6.05
2023-03-04T22:24:36.813Z,4.35
2023-03-04T22:27:04.100Z,3.83
2023-03-04T22:29:31.214Z,3.67
2023-03-04T22:31:58.627Z,4.40
2023-03-04T22:34:25.914Z,4.30
2023-03-04T22:36:53.178Z,4.55
2023-03-04T22:39:20.446Z,4.22
2023-03-04T22:41:47.733Z,4.57
2023-03-04T22:44:15.077Z,5.57
2023-03-04T22:46:42.837Z,6.90
2023-03-04T22:49:12.643Z,7.07
2023-03-04T22:51:42.435Z,7.28
2023-03-04T22:54:17.528Z,6.72
2023-03-04T22:56:45.484Z,5.75
2023-03-04T22:59:13.636Z,5.38
2023-03-04T23:01:41.523Z,5.10
2023-03-04T23:04:08.753Z,4.90
2023-03-04T23:06:36.503Z,4.28
2023-03-04T23:09:04.206Z,3.35
2023-03-04T23:11:35.688Z,3.45
2023-03-04T23:14:06.606Z,3.72
2023-03-04T23:16:39.449Z,3.38
2023-03-04T23:19:07.745Z,4.57
2023-03-04T23:21:36.184Z,3.70
2023-03-04T23:24:04.932Z,3.80
2023-03-04T23:26:36.181Z,3.80
2023-03-04T23:29:06.068Z,4.05
2023-03-04T23:31:34.355Z,3.30
2023-03-04T23:34:03.190Z,3.00
2023-03-04T23:36:32.956Z,3.08
2023-03-04T23:39:00.948Z,2.78
2023-03-04T23:41:29.846Z,2.88
2023-03-04T23:43:59.199Z,2.90
2023-03-04T23:48:54.766Z,2.70
2023-03-04T23:51:25.467Z,3.25
2023-03-04T23:53:52.861Z,2.42
2023-03-04T23:56:23.297Z,2.85
2023-03-04T23:58:50.922Z,2.80
